createdAt,value
2022-08-04T00:00:13.233Z,101245.59
2022-08-04T00:02:53.224Z,101243.59
2022-08-04T00:05:31.694Z,101244.97
2022-08-04T00:08:08.209Z,101249.44
2022-08-04T00:10:37.451Z,101236.59
2022-08-04T00:13:06.598Z,101240.94
2022-08-04T00:15:35.665Z,101237.13
2022-08-04T00:18:07.054Z,101238.28
2022-08-04T00:20:41.021Z,101235.09
2022-08-04T00:23:10.047Z,101235.25
2022-08-04T00:25:41.647Z,101245.56
2022-08-04T00:28:10.251Z,101251.91
2022-08-04T00:30:38.510Z,101249.56
2022-08-04T00:33:06.519Z,101252.38
2022-08-04T00:35:39.294Z,101253.41
2022-08-04T00:38:07.766Z,101245.91
2022-08-04T00:40:46.838Z,101249.06
2022-08-04T00:43:22.610Z,101254.72
2022-08-04T00:46:17.466Z,101246.19
2022-08-04T00:49:03.529Z,101244.72
2022-08-04T00:51:45.370Z,101253.50
2022-08-04T00:54:19.142Z,101256.31
2022-08-04T00:57:31.167Z,101255.66
2022-08-04T01:00:08.926Z,101260.47
2022-08-04T01:02:49.923Z,101263.63
2022-08-04T01:05:23.747Z,101264.75
2022-08-04T01:08:06.440Z,101272.09
2022-08-04T01:10:48.110Z,101269.44
2022-08-04T01:13:43.542Z,101267.41
2022-08-04T01:16:12.159Z,101266.72
2022-08-04T01:18:49.515Z,101274.38
2022-08-04T01:21:39.826Z,101274.22
2022-08-04T01:24:29.356Z,101271.41
2022-08-04T01:27:03.835Z,101258.44
2022-08-04T01:29:44.392Z,101254.44
2022-08-04T01:32:25.549Z,101252.91
2022-08-04T01:35:01.259Z,101253.06
2022-08-04T01:37:46.514Z,101267.84
2022-08-04T01:40:16.203Z,101259.31
2022-08-04T01:42:46.610Z,101250.69
2022-08-04T01:45:16.351Z,101251.47
2022-08-04T01:47:50.158Z,101253.97
2022-08-04T01:50:18.560Z,101252.31
2022-08-04T01:52:50.944Z,101260.63
2022-08-04T01:55:19.579Z,101274.88
2022-08-04T01:57:49.656Z,101269.88
2022-08-04T02:00:21.390Z,101278.16
2022-08-04T02:02:51.537Z,101278.16
2022-08-04T02:05:21.507Z,101282.38
2022-08-04T02:08:02.914Z,101276.72
2022-08-04T02:10:36.905Z,101284.53
2022-08-04T02:13:13.031Z,101286.03
2022-08-04T02:15:54.584Z,101272.59
2022-08-04T02:18:26.068Z,101269.94
2022-08-04T02:20:59.356Z,101270.63
2022-08-04T02:23:31.963Z,101257.31
2022-08-04T02:26:03.059Z,101264.59
2022-08-04T02:28:37.551Z,101259.28
2022-08-04T02:31:19.223Z,101275.25
2022-08-04T02:33:54.552Z,101270.94
2022-08-04T02:36:25.108Z,101272.59
2022-08-04T02:38:57.394Z,101269.25
2022-08-04T02:41:27.310Z,101265.28
2022-08-04T02:43:57.968Z,101274.25
2022-08-04T02:46:28.276Z,101256.47
2022-08-04T02:48:56.643Z,101265.63
2022-08-04T02:51:29.114Z,101276.56
2022-08-04T02:53:59.289Z,101277.53
2022-08-04T02:56:30.166Z,101290.84
2022-08-04T02:59:01.520Z,101289.19
2022-08-04T03:01:31.258Z,101285.53
2022-08-04T03:04:37.499Z,101289.03
2022-08-04T03:07:44.092Z,101294.19
2022-08-04T03:10:37.674Z,101287.84
2022-08-04T03:13:57.406Z,101279.06
2022-08-04T03:16:57.597Z,101281.88
2022-08-04T03:20:07.452Z,101279.06
2022-08-04T03:23:15.035Z,101274.56
2022-08-04T03:26:09.204Z,101273.59
2022-08-04T03:29:10.230Z,101264.94
2022-08-04T03:32:08.181Z,101272.75
2022-08-04T03:34:55.508Z,101274.41
2022-08-04T03:38:10.016Z,101263.13
2022-08-04T03:41:18.056Z,101257.94
2022-08-04T03:44:32.868Z,101281.50
2022-08-04T03:47:29.706Z,101290.34
2022-08-04T03:50:41.453Z,101286.34
2022-08-04T03:53:44.576Z,101282.06
2022-08-04T03:56:37.510Z,101286.06
2022-08-04T03:59:25.184Z,101291.53
2022-08-04T04:02:38.483Z,101299.63
2022-08-04T04:05:30.552Z,101298.00
2022-08-04T04:08:19.592Z,101302.25
2022-08-04T04:11:20.259Z,101314.09
2022-08-04T04:14:02.767Z,101309.50
2022-08-04T04:16:50.897Z,101319.47
2022-08-04T04:19:30.900Z,101310.13
2022-08-04T04:22:15.623Z,101326.41
2022-08-04T04:25:10.763Z,101320.94
2022-08-04T04:27:52.413Z,101322.59
2022-08-04T04:30:28.824Z,101320.16
2022-08-04T04:33:07.871Z,101325.16
2022-08-04T04:35:51.591Z,101324.56
2022-08-04T04:38:37.466Z,101323.56
2022-08-04T04:41:21.948Z,101326.56
2022-08-04T04:44:07.648Z,101327.22
2022-08-04T04:46:43.016Z,101328.41
2022-08-04T04:49:21.792Z,101334.56
2022-08-04T04:51:52.402Z,101332.56
2022-08-04T04:54:29.776Z,101336.59
2022-08-04T04:57:08.600Z,101333.09
2022-08-04T04:59:39.274Z,101331.91
2022-08-04T05:02:33.592Z,101327.75
2022-08-04T05:05:43.620Z,101329.25
2022-08-04T05:08:44.401Z,101339.25
2022-08-04T05:11:39.036Z,101328.28
2022-08-04T05:14:38.593Z,101340.47
2022-08-04T05:17:07.206Z,101334.16
2022-08-04T05:19:46.907Z,101331.13
2022-08-04T05:22:23.535Z,101331.97
2022-08-04T05:25:01.750Z,101334.00
2022-08-04T05:27:39.818Z,101345.97
2022-08-04T05:30:13.707Z,101344.63
2022-08-04T05:32:49.501Z,101355.59
2022-08-04T05:35:52.933Z,101353.06
2022-08-04T05:38:15.606Z,101353.41
2022-08-04T05:40:44.803Z,101365.09
2022-08-04T05:43:13.902Z,101367.13
2022-08-04T05:45:48.317Z,101366.84
2022-08-04T05:48:16.659Z,101357.88
2022-08-04T05:50:46.402Z,101358.38
2022-08-04T05:53:16.884Z,101361.59
2022-08-04T05:55:56.985Z,101363.94
2022-08-04T05:58:30.797Z,101363.50
2022-08-04T06:01:01.062Z,101364.00
2022-08-04T06:03:30.849Z,101367.84
2022-08-04T06:05:59.769Z,101370.00
2022-08-04T06:08:28.260Z,101374.38
2022-08-04T06:11:00.108Z,101367.53
2022-08-04T06:13:48.090Z,101362.38
2022-08-04T06:16:28.935Z,101364.22
2022-08-04T06:20:00.846Z,101357.56
2022-08-04T06:21:51.554Z,101357.25
2022-08-04T06:24:21.631Z,101360.75
2022-08-04T06:26:51.346Z,101366.03
2022-08-04T06:29:24.948Z,101366.03
2022-08-04T06:32:30.889Z,101364.66
2022-08-04T06:34:48.742Z,101368.94
2022-08-04T06:37:43.053Z,101367.56
2022-08-04T06:40:29.874Z,101368.41
2022-08-04T06:42:57.471Z,101375.41
2022-08-04T06:45:25.979Z,101378.72
2022-08-04T06:47:56.698Z,101364.97
2022-08-04T06:51:27.183Z,101367.16
2022-08-04T06:53:14.396Z,101359.72
2022-08-04T06:55:44.613Z,101366.69
2022-08-04T06:58:13.687Z,101371.53
2022-08-04T07:00:44.679Z,101374.06
2022-08-04T07:03:14.811Z,101377.44
2022-08-04T07:05:43.358Z,101375.63
2022-08-04T07:08:12.229Z,101380.75
2022-08-04T07:10:41.721Z,101374.09
2022-08-04T07:13:11.629Z,101377.69
2022-08-04T07:15:42.516Z,101377.94
2022-08-04T07:18:10.637Z,101393.31
2022-08-04T07:20:42.360Z,101384.22
2022-08-04T07:23:12.082Z,101379.19
2022-08-04T07:25:58.859Z,101389.25
2022-08-04T07:28:29.725Z,101378.34
2022-08-04T07:30:59.409Z,101386.13
2022-08-04T07:33:27.437Z,101384.09
2022-08-04T07:36:05.124Z,101384.28
2022-08-04T07:38:48.709Z,101378.63
2022-08-04T07:41:39.350Z,101385.13
2022-08-04T07:44:08.687Z,101393.03
2022-08-04T07:46:37.509Z,101375.13
2022-08-04T07:49:06.236Z,101375.84
2022-08-04T07:51:38.563Z,101380.66
2022-08-04T07:54:09.223Z,101383.34
2022-08-04T07:56:38.820Z,101385.78
2022-08-04T07:59:07.372Z,101380.25
2022-08-04T08:01:37.112Z,101380.63
2022-08-04T08:04:08.203Z,101385.28
2022-08-04T08:06:43.146Z,101388.13
2022-08-04T08:09:14.540Z,101384.22
2022-08-04T08:12:37.424Z,101384.75
2022-08-04T08:14:33.469Z,101389.44
2022-08-04T08:17:02.682Z,101392.44
2022-08-04T08:19:31.033Z,101393.81
2022-08-04T08:22:01.842Z,101391.41
2022-08-04T08:24:31.424Z,101394.41
2022-08-04T08:27:00.502Z,101397.88
2022-08-04T08:29:30.033Z,101402.25
2022-08-04T08:32:01.649Z,101390.69
2022-08-04T08:34:37.749Z,101400.00
2022-08-04T08:37:13.897Z,101397.88
2022-08-04T08:39:47.210Z,101392.16
2022-08-04T08:43:59.962Z,101388.50
2022-08-04T08:46:00.320Z,101400.19
2022-08-04T08:48:50.640Z,101400.44
2022-08-04T08:51:28.719Z,101395.72
2022-08-04T08:54:20.250Z,101393.91
2022-08-04T08:57:01.131Z,101390.69
2022-08-04T08:59:49.070Z,101404.91
2022-08-04T09:02:46.173Z,101404.16
2022-08-04T09:05:38.793Z,101410.66
2022-08-04T09:08:24.247Z,101404.31
2022-08-04T09:11:00.007Z,101413.66
2022-08-04T09:13:34.345Z,101406.25
2022-08-04T09:16:22.248Z,101416.78
2022-08-04T09:18:57.681Z,101417.34
2022-08-04T09:21:30.971Z,101411.44
2022-08-04T09:24:36.257Z,101421.78
2022-08-04T09:27:01.339Z,101414.59
2022-08-04T09:29:37.859Z,101410.25
2022-08-04T09:32:13.087Z,101421.31
2022-08-04T09:35:03.290Z,101417.25
2022-08-04T09:37:45.639Z,101420.28
2022-08-04T09:40:31.793Z,101420.97
2022-08-04T09:43:21.185Z,101427.28
2022-08-04T09:46:00.137Z,101424.75
2022-08-04T09:48:38.248Z,101424.41
2022-08-04T09:51:15.412Z,101422.44
2022-08-04T09:53:54.864Z,101438.13
2022-08-04T09:56:29.411Z,101426.31
2022-08-04T09:59:09.643Z,101425.28
2022-08-04T10:01:39.126Z,101429.78
2022-08-04T10:04:12.444Z,101418.91
2022-08-04T10:07:13.580Z,101432.59
2022-08-04T10:09:51.514Z,101434.03
2022-08-04T10:12:31.366Z,101433.19
2022-08-04T10:15:11.068Z,101431.94
2022-08-04T10:18:18.508Z,101429.97
2022-08-04T10:21:08.049Z,101447.53
2022-08-04T10:24:00.144Z,101441.13
2022-08-04T10:26:48.347Z,101447.41
2022-08-04T10:29:20.814Z,101443.09
2022-08-04T10:31:58.479Z,101439.03
2022-08-04T10:34:30.484Z,101438.13
2022-08-04T10:37:05.603Z,101433.16
2022-08-04T10:39:44.251Z,101436.00
2022-08-04T10:42:21.902Z,101439.53
2022-08-04T10:45:02.651Z,101441.47
2022-08-04T10:47:36.665Z,101423.91
2022-08-04T10:50:06.521Z,101431.06
2022-08-04T10:52:39.601Z,101427.66
2022-08-04T10:55:13.315Z,101438.31
2022-08-04T10:57:46.059Z,101446.16
2022-08-04T11:00:19.830Z,101439.47
2022-08-04T11:02:54.751Z,101431.19
2022-08-04T11:05:30.309Z,101441.78
2022-08-04T11:08:06.614Z,101447.63
2022-08-04T11:10:42.163Z,101434.25
2022-08-04T11:13:22.042Z,101443.78
2022-08-04T11:16:04.181Z,101436.72
2022-08-04T11:18:41.385Z,101439.94
2022-08-04T11:21:17.086Z,101443.19
2022-08-04T11:23:53.199Z,101448.28
2022-08-04T11:26:25.874Z,101446.25
2022-08-04T11:29:03.626Z,101460.28
2022-08-04T11:31:34.578Z,101459.44
2022-08-04T11:34:07.931Z,101454.63
2022-08-04T11:36:43.290Z,101450.44
2022-08-04T11:39:19.536Z,101463.63
2022-08-04T11:41:53.488Z,101460.56
2022-08-04T11:44:28.127Z,101456.88
2022-08-04T11:47:00.559Z,101458.19
2022-08-04T11:49:57.324Z,101462.81
2022-08-04T11:52:25.331Z,101461.78
2022-08-04T11:54:54.562Z,101459.09
2022-08-04T11:57:25.798Z,101463.56
2022-08-04T12:00:09.867Z,101463.84
2022-08-04T12:03:03.092Z,101456.28
2022-08-04T12:05:38.096Z,101459.22
2022-08-04T12:08:23.433Z,101453.16
2022-08-04T12:11:03.180Z,101447.31
2022-08-04T12:13:38.349Z,101456.03
2022-08-04T12:16:16.152Z,101468.88
2022-08-04T12:18:52.543Z,101457.78
2022-08-04T12:21:30.517Z,101450.94
2022-08-04T12:24:02.813Z,101447.53
2022-08-04T12:26:38.437Z,101453.25
2022-08-04T12:29:10.916Z,101456.81
2022-08-04T12:31:46.477Z,101456.22
2022-08-04T12:34:18.656Z,101447.31
2022-08-04T12:36:57.006Z,101454.81
2022-08-04T12:39:28.119Z,101454.44
2022-08-04T12:42:04.790Z,101445.72
2022-08-04T12:44:37.387Z,101438.81
2022-08-04T12:47:36.198Z,101447.47
2022-08-04T12:50:01.687Z,101446.72
2022-08-04T12:53:01.438Z,101427.66
2022-08-04T12:55:27.075Z,101433.28
2022-08-04T12:57:56.498Z,101430.03
2022-08-04T13:00:30.130Z,101428.88
2022-08-04T13:03:09.579Z,101427.00
2022-08-04T13:05:41.097Z,101421.06
2022-08-04T13:08:12.378Z,101420.31
2022-08-04T13:10:42.525Z,101417.03
2022-08-04T13:13:21.300Z,101422.22
2022-08-04T13:16:00.445Z,101422.09
2022-08-04T13:18:32.081Z,101419.44
2022-08-04T13:21:20.163Z,101419.13
2022-08-04T13:24:10.976Z,101419.69
2022-08-04T13:30:00.153Z,101422.22
2022-08-04T13:30:25.010Z,101425.69
2022-08-04T13:32:31.846Z,101412.16
2022-08-04T13:35:03.921Z,101415.31
2022-08-04T13:37:35.385Z,101413.47
2022-08-04T13:40:07.641Z,101400.47
2022-08-04T13:42:36.410Z,101402.53
2022-08-04T13:45:07.476Z,101404.75
2022-08-04T13:47:38.711Z,101405.03
2022-08-04T13:50:14.978Z,101412.03
2022-08-04T13:52:44.134Z,101413.09
2022-08-04T13:55:21.999Z,101420.03
2022-08-04T13:57:54.256Z,101416.94
2022-08-04T14:00:29.807Z,101409.69
2022-08-04T14:03:23.228Z,101404.84
2022-08-04T14:06:24.637Z,101410.03
2022-08-04T14:08:55.609Z,101412.25
2022-08-04T14:12:06.595Z,101406.09
2022-08-04T14:14:25.775Z,101400.91
2022-08-04T14:17:05.447Z,101397.84
2022-08-04T14:19:52.823Z,101390.38
2022-08-04T14:22:35.620Z,101392.88
2022-08-04T14:25:09.067Z,101395.38
2022-08-04T14:27:48.162Z,101399.47
2022-08-04T14:30:24.080Z,101397.00
2022-08-04T14:33:59.519Z,101387.69
2022-08-04T14:35:58.497Z,101386.69
2022-08-04T14:38:43.243Z,101375.09
2022-08-04T14:41:11.354Z,101377.56
2022-08-04T14:43:51.596Z,101370.72
2022-08-04T14:46:19.983Z,101363.94
2022-08-04T14:49:10.706Z,101360.63
2022-08-04T14:51:41.975Z,101367.63
2022-08-04T14:54:15.658Z,101362.31
2022-08-04T14:56:54.158Z,101359.84
2022-08-04T14:59:24.713Z,101349.31
2022-08-04T15:02:00.993Z,101343.13
2022-08-04T15:04:31.489Z,101344.81
2022-08-04T15:07:00.613Z,101343.34
2022-08-04T15:09:32.745Z,101344.03
2022-08-04T15:12:01.092Z,101346.50
2022-08-04T15:14:36.871Z,101347.31
2022-08-04T15:17:11.884Z,101340.75
2022-08-04T15:19:41.080Z,101329.34
2022-08-04T15:22:23.619Z,101341.53
2022-08-04T15:24:54.917Z,101338.84
2022-08-04T15:27:26.668Z,101335.53
2022-08-04T15:30:02.008Z,101328.09
2022-08-04T15:32:32.810Z,101325.41
2022-08-04T15:35:03.222Z,101315.06
2022-08-04T15:37:40.295Z,101311.09
2022-08-04T15:40:13.379Z,101313.56
2022-08-04T15:42:48.313Z,101315.63
2022-08-04T15:46:37.225Z,101312.72
2022-08-04T15:48:33.083Z,101304.84
2022-08-04T15:51:07.036Z,101296.38
2022-08-04T15:54:27.474Z,101297.22
2022-08-04T15:57:02.485Z,101292.44
2022-08-04T16:00:00.517Z,101293.06
2022-08-04T16:02:39.980Z,101284.81
2022-08-04T16:05:39.239Z,101283.97
2022-08-04T16:08:15.243Z,101287.44
2022-08-04T16:10:46.374Z,101282.28
2022-08-04T16:13:15.646Z,101281.88
2022-08-04T16:15:46.902Z,101285.50
2022-08-04T16:18:26.682Z,101281.97
2022-08-04T16:20:57.840Z,101292.09
2022-08-04T16:24:03.689Z,101282.56
2022-08-04T16:26:53.560Z,101281.53
2022-08-04T16:29:35.248Z,101289.78
2022-08-04T16:32:23.464Z,101291.47
2022-08-04T16:34:59.813Z,101285.69
2022-08-04T16:37:33.971Z,101283.06
2022-08-04T16:40:35.862Z,101278.09
2022-08-04T16:43:10.401Z,101278.75
2022-08-04T16:45:47.067Z,101266.34
2022-08-04T16:48:16.697Z,101267.16
2022-08-04T16:50:57.531Z,101265.94
2022-08-04T16:54:04.348Z,101262.22
2022-08-04T16:56:33.614Z,101258.75
2022-08-04T16:59:08.279Z,101246.56
2022-08-04T17:01:37.021Z,101259.78
2022-08-04T17:04:06.449Z,101249.09
2022-08-04T17:06:37.886Z,101258.81
2022-08-04T17:09:07.784Z,101252.59
2022-08-04T17:11:35.774Z,101238.34
2022-08-04T17:14:05.889Z,101232.97
2022-08-04T17:16:35.548Z,101235.84
2022-08-04T17:19:03.755Z,101239.34
2022-08-04T17:21:35.539Z,101230.44
2022-08-04T17:24:14.806Z,101222.13
2022-08-04T17:26:54.635Z,101224.19
2022-08-04T17:29:43.015Z,101219.00
2022-08-04T17:32:15.930Z,101234.88
2022-08-04T17:34:48.579Z,101237.31
2022-08-04T17:37:39.169Z,101237.72
2022-08-04T17:44:04.634Z,101220.78
2022-08-04T17:46:15.966Z,101210.63
2022-08-04T17:48:58.926Z,101228.16
2022-08-04T17:51:53.416Z,101239.50
2022-08-04T17:54:37.343Z,101242.53
2022-08-04T17:57:19.662Z,101241.25
2022-08-04T17:59:56.278Z,101243.06
2022-08-04T18:02:32.346Z,101253.13
2022-08-04T18:05:06.800Z,101254.72
2022-08-04T18:08:39.100Z,101255.94
2022-08-04T18:10:56.188Z,101247.00
2022-08-04T18:13:29.533Z,101247.97
2022-08-04T18:16:03.153Z,101249.19
2022-08-04T18:18:31.272Z,101246.69
2022-08-04T18:21:02.954Z,101246.44
2022-08-04T18:26:23.601Z,101249.81
2022-08-04T18:28:53.472Z,101253.91
2022-08-04T18:31:21.499Z,101247.09
2022-08-04T18:33:57.131Z,101237.13
2022-08-04T18:39:18.335Z,101228.97
2022-08-04T18:42:06.513Z,101233.41
2022-08-04T18:44:52.113Z,101235.63
2022-08-04T18:47:23.059Z,101230.19
2022-08-04T18:50:59.784Z,101235.28
2022-08-04T18:52:45.122Z,101229.47
2022-08-04T18:55:55.270Z,101242.59
2022-08-04T18:58:06.291Z,101228.69
2022-08-04T19:00:37.846Z,101243.19
2022-08-04T19:03:13.303Z,101236.56
2022-08-04T19:05:44.907Z,101240.00
2022-08-04T19:08:34.438Z,101232.50
2022-08-04T19:11:38.725Z,101234.25
2022-08-04T19:16:45.699Z,101246.34
2022-08-04T19:19:14.140Z,101231.69
2022-08-04T19:22:01.424Z,101234.44
2022-08-04T19:24:34.418Z,101231.66
2022-08-04T19:27:06.900Z,101239.22
2022-08-04T19:29:40.556Z,101242.63
2022-08-04T19:32:14.114Z,101245.75
2022-08-04T19:34:46.091Z,101232.91
2022-08-04T19:37:56.191Z,101233.28
2022-08-04T19:40:04.588Z,101223.97
2022-08-04T19:42:33.015Z,101224.50
2022-08-04T19:45:00.905Z,101225.06
2022-08-04T19:48:15.933Z,101222.72
2022-08-04T19:50:19.731Z,101218.44
2022-08-04T19:52:51.926Z,101216.31
2022-08-04T19:55:22.437Z,101219.53
2022-08-04T19:57:52.479Z,101219.88
2022-08-04T20:00:33.165Z,101226.38
2022-08-04T20:03:13.242Z,101244.72
2022-08-04T20:05:55.397Z,101257.88
2022-08-04T20:08:27.938Z,101258.97
2022-08-04T20:10:56.040Z,101229.63
2022-08-04T20:13:37.025Z,101239.81
2022-08-04T20:16:28.553Z,101253.72
2022-08-04T20:19:02.755Z,101266.47
2022-08-04T20:21:36.503Z,101257.78
2022-08-04T20:24:39.461Z,101265.78
2022-08-04T20:27:14.903Z,101273.50
2022-08-04T20:29:48.293Z,101274.66
2022-08-04T20:32:19.246Z,101272.53
2022-08-04T20:34:48.962Z,101283.41
2022-08-04T20:37:17.194Z,101286.56
2022-08-04T20:39:45.472Z,101278.75
2022-08-04T20:42:27.019Z,101256.72
2022-08-04T20:44:55.848Z,101255.06
2022-08-04T20:47:26.743Z,101287.25
2022-08-04T20:50:00.669Z,101276.09
2022-08-04T20:52:30.288Z,101288.31
2022-08-04T20:54:58.768Z,101306.47
2022-08-04T20:57:47.643Z,101313.81
2022-08-04T21:00:15.590Z,101330.16
2022-08-04T21:02:44.478Z,101332.19
2022-08-04T21:05:13.863Z,101326.19
2022-08-04T21:07:48.738Z,101323.34
2022-08-04T21:10:17.188Z,101323.34
2022-08-04T21:12:50.032Z,101328.16
2022-08-04T21:15:25.048Z,101305.78
2022-08-04T21:17:59.136Z,101272.28
2022-08-04T21:20:34.532Z,101259.28
2022-08-04T21:23:03.630Z,101260.78
2022-08-04T21:25:42.479Z,101279.00
2022-08-04T21:28:11.035Z,101283.50
2022-08-04T21:30:54.750Z,101277.53
2022-08-04T21:33:49.002Z,101267.41
2022-08-04T21:36:19.473Z,101275.72
2022-08-04T21:38:51.081Z,101280.72
2022-08-04T21:41:27.004Z,101282.25
2022-08-04T21:43:56.406Z,101297.72
2022-08-04T21:46:27.473Z,101299.56
2022-08-04T21:48:58.750Z,101306.59
2022-08-04T21:51:59.350Z,101300.56
2022-08-04T21:54:20.047Z,101296.41
2022-08-04T21:56:52.247Z,101298.91
2022-08-04T21:59:23.630Z,101293.91
2022-08-04T22:02:00.370Z,101301.25
2022-08-04T22:04:28.885Z,101298.91
2022-08-04T22:06:58.191Z,101297.41
2022-08-04T22:09:31.599Z,101296.72
2022-08-04T22:12:07.191Z,101313.72
2022-08-04T22:14:39.426Z,101328.84
2022-08-04T22:17:07.532Z,101329.88
2022-08-04T22:19:55.991Z,101348.50
2022-08-04T22:22:29.584Z,101376.94
2022-08-04T22:25:12.429Z,101418.03
2022-08-04T22:28:00.883Z,101443.00
2022-08-04T22:30:33.319Z,101440.19
2022-08-04T22:33:07.366Z,101459.81
2022-08-04T22:35:48.870Z,101424.50
2022-08-04T22:38:24.307Z,101363.59
2022-08-04T22:40:58.474Z,101376.06
2022-08-04T22:43:32.576Z,101369.72
2022-08-04T22:46:03.924Z,101361.38
2022-08-04T22:48:33.419Z,101339.56
2022-08-04T22:51:01.422Z,101332.72
2022-08-04T22:53:32.204Z,101320.91
2022-08-04T22:56:09.461Z,101320.38
2022-08-04T22:58:40.184Z,101326.53
2022-08-04T23:01:09.190Z,101314.72
2022-08-04T23:03:38.592Z,101311.41
2022-08-04T23:06:11.766Z,101310.25
2022-08-04T23:08:43.019Z,101311.75
2022-08-04T23:11:14.953Z,101309.25
2022-08-04T23:13:42.966Z,101304.41
2022-08-04T23:16:11.208Z,101322.34
2022-08-04T23:18:42.341Z,101328.16
2022-08-04T23:21:13.964Z,101340.13
2022-08-04T23:23:55.502Z,101317.16
2022-08-04T23:26:31.700Z,101317.31
2022-08-04T23:29:03.714Z,101301.53
2022-08-04T23:31:41.276Z,101313.47
2022-08-04T23:34:20.034Z,101293.34
2022-08-04T23:36:49.295Z,101291.34
2022-08-04T23:39:19.340Z,101276.22
2022-08-04T23:41:53.952Z,101272.22
2022-08-04T23:44:26.891Z,101275.50
2022-08-04T23:47:02.010Z,101281.00
2022-08-04T23:49:44.067Z,101288.28
2022-08-04T23:52:23.216Z,101285.63
2022-08-04T23:54:59.954Z,101280.59
2022-08-04T23:57:31.390Z,101274.78
